EGTE/EXT METAR and TAF weather

Enter ICAO airport designator
Station Type Date Time Source
EGTE METAR 2018/09/20 18:20 UTC NOAA

EGTE 201820Z 21021G31KT 8000 -RA BKN012 19/17 Q1002


Station Type Date Time Source
EGTE Decoded METAR 2018/09/20 18:20 UTC NOAA

Exeter Airport, United Kingdom (EGTE) 50-44N 003-25W
Sep 20, 2018 - 02:20 PM EDT / 2018.09.20 1820 UTC
Wind: from the SSW (210 degrees) at 24 MPH (21 KT) gusting to 36 MPH (31 KT):0
Visibility: 4 mile(s):0
Sky conditions: mostly cloudy
Weather: light rain
Temperature: 66 F (19 C)
Dew Point: 62 F (17 C)
Relative Humidity: 88%
Pressure (altimeter): 29.59 in. Hg (1002 hPa)
ob: EGTE 201820Z 21021G31KT 8000 -RA BKN012 19/17 Q1002
cycle: 18

Station Type Date Time Source
EGTE TAF 2012/04/19 12:15 UTC NOAA

TAF TAF EGTE 191401Z 1912/1924 31016KT 9999 SCT030 SCT035 PROB40
TEMPO 1915/1918 7000 SHRA BKN014


Example: see airport list